Time;durP1;ratioP1;P1;durP2;ratioP2;P2;SDS_P1;SDS_P2;PMS_P1;PMS_P2;Temp;Humidity;BMP_temperature;BMP_pressure;BME280_temperature;BME280_humidity;BME280_pressure;Samples;Min_cycle;Max_cycle;Signal;HPM_P1;HPM_P2
2022/05/19 12:49:09;;;;;;;2.92;1.15;;;24.30;44.90;;;;;;5096825;27;20481;-59
2022/05/19 12:51:53;;;;;;;1.48;1.38;;;24.20;46.50;;;;;;5084127;28;20200;-60
2022/05/19 12:54:22;;;;;;;1.60;1.50;;;24.40;46.60;;;;;;5083258;28;20558;-60
2022/05/19 12:57:31;;;;;;;3.08;1.60;;;24.60;46.60;;;;;;5084215;28;20196;-60
2022/05/19 13:00:13;;;;;;;1.92;1.48;;;24.80;46.30;;;;;;5069678;28;20212;-60
2022/05/19 13:03:00;;;;;;;2.72;1.58;;;25.00;46.10;;;;;;5083774;28;20262;-60
2022/05/19 13:05:35;;;;;;;1.63;1.50;;;25.20;46.00;;;;;;5085755;28;20189;-59
2022/05/19 13:08:10;;;;;;;2.95;1.45;;;25.30;45.70;;;;;;5084047;28;20208;-59
2022/05/19 13:10:40;;;;;;;1.58;1.48;;;25.50;45.00;;;;;;5084053;28;20271;-59
2022/05/19 13:13:19;;;;;;;1.70;1.60;;;25.60;44.60;;;;;;5090587;28;20208;-59
2022/05/19 13:15:50;;;;;;;2.55;1.70;;;25.60;44.30;;;;;;5082568;28;20189;-59
2022/05/19 13:18:18;;;;;;;1.65;1.50;;;25.70;43.90;;;;;;5085391;28;20242;-59
2022/05/19 13:20:46;;;;;;;3.30;1.80;;;25.70;44.00;;;;;;5085160;28;20205;-59
2022/05/19 13:23:22;;;;;;;1.60;1.50;;;25.70;43.80;;;;;;5077964;28;20195;-59
2022/05/19 13:25:52;;;;;;;1.38;1.38;;;25.80;43.80;;;;;;5089922;28;20248;-59
2022/05/19 13:31:22;;;;;;;2.17;1.58;;;25.80;43.70;;;;;;5081738;28;20199;-59
2022/05/19 13:33:51;;;;;;;2.45;1.50;;;25.90;43.70;;;;;;5083060;28;20196;-59
2022/05/19 13:36:30;;;;;;;5.30;1.70;;;25.90;43.60;;;;;;5077529;28;20216;-59
2022/05/19 13:39:09;;;;;;;1.80;1.40;;;25.90;43.60;;;;;;5083977;28;20185;-60
2022/05/19 13:41:44;;;;;;;1.58;1.20;;;26.00;43.70;;;;;;5084330;28;20668;-59
2022/05/19 13:44:14;;;;;;;2.25;1.20;;;26.00;43.70;;;;;;5086118;28;20245;-59
2022/05/19 13:46:42;;;;;;;1.70;1.30;;;26.00;43.50;;;;;;5085753;28;20301;-60
2022/05/19 13:49:11;;;;;;;1.45;1.40;;;26.00;43.70;;;;;;5085323;28;20231;-59
2022/05/19 13:51:43;;;;;;;1.45;1.35;;;26.10;43.80;;;;;;5083239;28;20660;-59
2022/05/19 13:54:14;;;;;;;2.78;1.40;;;26.10;43.60;;;;;;5081992;28;20471;-59
2022/05/19 13:56:44;;;;;;;3.10;1.55;;;26.10;43.50;;;;;;5084994;28;20188;-59
2022/05/19 13:59:15;;;;;;;1.40;1.30;;;26.10;43.60;;;;;;5069375;28;20277;-59
2022/05/19 14:01:45;;;;;;;1.73;1.50;;;26.10;43.50;;;;;;5072286;28;20427;-58
2022/05/19 14:04:16;;;;;;;1.60;1.50;;;26.20;43.50;;;;;;5063494;28;20198;-59
2022/05/19 14:06:45;;;;;;;1.60;1.50;;;26.10;43.50;;;;;;5071885;28;20259;-59
2022/05/19 14:09:23;;;;;;;2.83;1.83;;;26.20;43.50;;;;;;5070113;28;20196;-59
2022/05/19 14:12:08;;;;;;;1.50;1.40;;;26.20;43.20;;;;;;5073664;28;20192;-59
2022/05/19 14:14:35;;;;;;;2.05;1.40;;;26.10;43.20;;;;;;5063451;28;20186;-59
2022/05/19 14:17:03;;;;;;;1.63;1.55;;;26.10;43.20;;;;;;5071451;28;20644;-59
2022/05/19 14:19:37;;;;;;;1.40;1.40;;;26.10;43.30;;;;;;5071255;28;20263;-59
2022/05/19 14:22:05;;;;;;;1.50;1.40;;;26.10;43.40;;;;;;5070217;28;20181;-62
2022/05/19 14:24:36;;;;;;;1.70;1.60;;;26.10;43.40;;;;;;5064582;28;20276;-60
2022/05/19 14:27:06;;;;;;;2.58;1.50;;;26.10;43.40;;;;;;5058608;28;20268;-59
2022/05/19 14:29:39;;;;;;;1.48;1.40;;;26.20;43.60;;;;;;5071625;28;20566;-59
2022/05/19 14:32:23;;;;;;;1.60;1.50;;;26.20;43.50;;;;;;5071401;28;20193;-57
2022/05/19 14:34:51;;;;;;;1.40;1.30;;;26.10;43.30;;;;;;5071957;28;20603;-59
2022/05/19 14:37:30;;;;;;;4.53;1.40;;;26.10;43.30;;;;;;5069013;28;20197;-59
2022/05/19 14:43:04;;;;;;;1.60;1.30;;;26.20;43.40;;;;;;5069682;28;20251;-60
2022/05/19 14:43:04;;;;;;;1.60;1.50;;;26.10;43.50;;;;;;5070700;28;20230;-59
2022/05/19 14:45:32;;;;;;;1.70;1.60;;;26.10;43.50;;;;;;5071482;28;20272;-59
2022/05/19 14:48:00;;;;;;;1.90;1.50;;;26.20;43.60;;;;;;5070812;28;20708;-59
2022/05/19 14:50:32;;;;;;;1.30;1.30;;;26.10;43.20;;;;;;5071608;28;20197;-59
2022/05/19 14:53:04;;;;;;;3.05;1.40;;;26.10;43.30;;;;;;5065435;28;20200;-59
2022/05/19 14:55:36;;;;;;;1.40;1.40;;;26.10;43.30;;;;;;5071874;28;20193;-59
2022/05/19 14:58:06;;;;;;;1.52;1.42;;;26.10;43.40;;;;;;5069544;28;20193;-59
2022/05/19 15:00:34;;;;;;;2.13;1.38;;;26.10;43.40;;;;;;5071593;28;20236;-59
2022/05/19 15:03:03;;;;;;;1.80;1.70;;;26.10;43.40;;;;;;5069331;28;20665;-59
2022/05/19 15:05:32;;;;;;;1.33;1.23;;;26.10;43.40;;;;;;5068869;28;20211;-58
2022/05/19 15:08:04;;;;;;;1.60;1.50;;;26.00;43.40;;;;;;5069521;28;20241;-59
2022/05/19 15:10:31;;;;;;;1.30;1.30;;;26.00;43.40;;;;;;5069193;28;20190;-59
2022/05/19 15:12:59;;;;;;;1.10;1.10;;;26.00;43.40;;;;;;5058517;28;20201;-59
2022/05/19 15:15:27;;;;;;;1.40;1.40;;;26.00;43.50;;;;;;5103518;28;20209;-59
2022/05/19 15:17:54;;;;;;;1.45;1.35;;;26.00;43.60;;;;;;5070774;28;20221;-59
2022/05/19 15:20:22;;;;;;;1.40;1.40;;;26.00;43.50;;;;;;5071195;28;20280;-59
2022/05/19 15:22:50;;;;;;;1.45;1.35;;;26.00;43.10;;;;;;5068588;28;20201;-59
2022/05/19 15:25:19;;;;;;;1.30;1.20;;;26.00;43.00;;;;;;5070970;28;20190;-59
2022/05/19 15:27:46;;;;;;;1.42;1.33;;;26.00;42.90;;;;;;5070600;28;20300;-59
2022/05/19 15:30:16;;;;;;;1.30;1.30;;;25.90;42.80;;;;;;5070818;28;20201;-59
2022/05/19 15:32:44;;;;;;;2.50;1.40;;;25.90;42.80;;;;;;5070288;28;20251;-59
2022/05/19 15:35:11;;;;;;;3.72;1.70;;;25.90;42.80;;;;;;5070842;28;20193;-59
2022/05/19 15:37:40;;;;;;;1.35;1.25;;;25.90;43.00;;;;;;5068233;28;20201;-59
2022/05/19 15:40:10;;;;;;;1.38;1.30;;;25.90;43.00;;;;;;5070529;28;20200;-58
2022/05/19 15:42:39;;;;;;;2.65;1.52;;;25.90;42.80;;;;;;5070265;28;20193;-59
2022/05/19 15:45:09;;;;;;;1.30;1.30;;;25.90;42.50;;;;;;5070302;28;20193;-58
2022/05/19 15:47:39;;;;;;;1.73;1.60;;;25.90;42.40;;;;;;5069262;28;20248;-58
2022/05/19 15:50:10;;;;;;;1.77;1.33;;;25.90;42.30;;;;;;5070569;28;20197;-60
2022/05/19 15:52:37;;;;;;;1.33;1.30;;;25.80;42.30;;;;;;5068558;28;20197;-59
2022/05/19 15:55:07;;;;;;;1.63;1.52;;;25.80;42.20;;;;;;5068739;28;20224;-59
2022/05/19 15:57:34;;;;;;;1.35;1.20;;;25.80;41.90;;;;;;5069639;28;20246;-59
2022/05/19 16:00:04;;;;;;;4.07;1.40;;;25.80;41.80;;;;;;5068810;28;20211;-59
2022/05/19 16:02:41;;;;;;;7.13;1.48;;;25.70;41.80;;;;;;5069401;28;20201;-59
2022/05/19 16:05:12;;;;;;;2.35;1.33;;;25.70;41.80;;;;;;5069175;28;20205;-59
2022/05/19 16:07:39;;;;;;;1.38;1.38;;;25.70;41.80;;;;;;5065915;28;20221;-59
2022/05/19 16:10:08;;;;;;;2.65;1.60;;;25.60;41.70;;;;;;5068820;28;20215;-59
2022/05/19 16:12:37;;;;;;;1.33;1.23;;;25.60;41.40;;;;;;5055558;28;20285;-59
2022/05/19 16:15:08;;;;;;;1.48;1.38;;;25.50;41.20;;;;;;5068317;28;20193;-59
2022/05/19 16:17:35;;;;;;;2.08;1.30;;;25.50;41.30;;;;;;5069238;28;20289;-59
2022/05/19 16:20:02;;;;;;;1.70;1.30;;;25.50;41.50;;;;;;5070264;28;20193;-59
2022/05/19 16:22:30;;;;;;;1.50;1.40;;;25.40;41.40;;;;;;5066403;28;20292;-59
2022/05/19 16:25:00;;;;;;;1.42;1.33;;;25.40;41.40;;;;;;5069359;28;20198;-59
2022/05/19 16:27:28;;;;;;;1.55;1.45;;;25.40;41.40;;;;;;5068858;28;20222;-59
2022/05/19 16:29:55;;;;;;;1.55;1.45;;;25.30;41.10;;;;;;5101786;28;20201;-60
2022/05/19 16:32:24;;;;;;;1.42;1.33;;;25.30;40.80;;;;;;5070138;28;20259;-59
2022/05/19 16:34:52;;;;;;;1.02;1.02;;;25.30;40.90;;;;;;5069704;28;20193;-59
2022/05/19 16:37:22;;;;;;;1.35;1.25;;;25.30;40.70;;;;;;5065287;28;20200;-59
2022/05/19 16:39:49;;;;;;;1.33;1.10;;;25.20;40.50;;;;;;5069043;28;20197;-59
2022/05/19 16:42:17;;;;;;;1.08;0.98;;;25.10;40.30;;;;;;5068773;28;20204;-59
2022/05/19 16:44:45;;;;;;;1.30;1.20;;;25.10;40.40;;;;;;5069041;28;20201;-58
2022/05/19 16:47:13;;;;;;;1.63;1.50;;;25.10;40.30;;;;;;5068372;28;20344;-59
2022/05/19 16:49:42;;;;;;;1.52;1.38;;;25.10;40.20;;;;;;5069440;28;20238;-58
2022/05/19 16:52:10;;;;;;;1.65;1.52;;;25.00;39.90;;;;;;5067682;28;20617;-59
2022/05/19 16:57:43;;;;;;;1.40;1.30;;;25.00;39.70;;;;;;5067216;28;20519;-59
2022/05/19 17:00:14;;;;;;;1.63;1.30;;;24.90;39.80;;;;;;5068501;28;20200;-59
2022/05/19 17:02:42;;;;;;;1.50;1.40;;;24.80;39.90;;;;;;5066948;28;20212;-59
2022/05/19 17:05:11;;;;;;;1.20;1.20;;;24.80;40.00;;;;;;5067845;28;20204;-59
2022/05/19 17:07:39;;;;;;;1.10;1.10;;;24.70;40.10;;;;;;5066614;28;20606;-58
2022/05/19 17:10:10;;;;;;;1.50;1.40;;;24.70;40.20;;;;;;5068756;28;20613;-58
2022/05/19 17:12:38;;;;;;;1.13;1.08;;;24.90;40.60;;;;;;5054695;28;20209;-58
2022/05/19 17:15:06;;;;;;;3.42;1.45;;;24.60;40.40;;;;;;5069087;28;20201;-58
2022/05/19 17:17:34;;;;;;;1.30;1.30;;;24.60;40.40;;;;;;5068557;28;20189;-58
2022/05/19 17:20:01;;;;;;;1.10;1.10;;;24.60;40.50;;;;;;5069229;28;20201;-59
2022/05/19 17:22:30;;;;;;;1.02;1.00;;;24.50;40.40;;;;;;5066696;28;20200;-58
2022/05/19 17:24:57;;;;;;;1.10;1.10;;;24.50;40.40;;;;;;5068237;28;20660;-59
2022/05/19 17:27:24;;;;;;;1.25;1.00;;;24.50;40.50;;;;;;5068425;28;20201;-59
2022/05/19 17:29:51;;;;;;;1.27;1.17;;;24.40;40.50;;;;;;5069066;28;20193;-59
2022/05/19 17:32:19;;;;;;;1.27;1.17;;;24.40;40.50;;;;;;5068249;28;20205;-59
2022/05/19 17:34:47;;;;;;;3.95;1.25;;;24.40;40.70;;;;;;5071767;28;20194;-60
2022/05/19 17:37:14;;;;;;;2.00;1.40;;;24.40;40.80;;;;;;5070561;28;20246;-58
2022/05/19 17:39:42;;;;;;;1.67;1.58;;;24.30;40.80;;;;;;5072244;28;20193;-59
2022/05/19 17:42:10;;;;;;;1.50;1.40;;;24.20;40.90;;;;;;5072033;28;20193;-59
2022/05/19 17:44:37;;;;;;;1.50;1.40;;;24.20;41.00;;;;;;5071835;28;20459;-58
2022/05/19 17:47:05;;;;;;;1.75;1.63;;;24.20;41.20;;;;;;5071841;28;20250;-59
2022/05/19 17:49:33;;;;;;;1.40;1.30;;;24.20;41.30;;;;;;5071863;28;20759;-61
2022/05/19 17:52:01;;;;;;;1.45;1.35;;;24.10;41.30;;;;;;5071878;28;20189;-59
2022/05/19 17:54:29;;;;;;;1.27;1.17;;;24.10;41.50;;;;;;5069575;28;20664;-59
2022/05/19 17:56:58;;;;;;;1.60;1.50;;;24.10;41.60;;;;;;5071954;28;20190;-59
2022/05/19 17:59:25;;;;;;;1.63;1.52;;;24.00;41.70;;;;;;5071838;28;20193;-59
2022/05/19 18:01:52;;;;;;;1.73;1.33;;;24.00;41.80;;;;;;5071768;28;20552;-59
2022/05/19 18:04:20;;;;;;;1.55;1.45;;;24.00;41.90;;;;;;5064128;28;20264;-59
2022/05/19 18:06:47;;;;;;;1.33;1.30;;;24.00;42.00;;;;;;5072129;28;20683;-59
2022/05/19 18:09:15;;;;;;;1.52;1.42;;;24.00;42.10;;;;;;5069326;28;20212;-59
2022/05/19 18:11:42;;;;;;;1.55;1.45;;;24.00;42.20;;;;;;5058300;28;20208;-59
2022/05/19 18:18:20;;;;;;;1.70;1.60;;;23.90;42.20;;;;;;5082768;28;20209;-58
2022/05/19 18:19:42;;;;;;;4.60;1.40;;;23.90;42.50;;;;;;5061180;28;20188;-59
2022/05/19 18:22:10;;;;;;;1.38;1.27;;;23.80;42.60;;;;;;5070268;28;20223;-60
2022/05/19 18:24:37;;;;;;;1.70;1.60;;;23.80;42.80;;;;;;5070309;28;20687;-60
2022/05/19 18:27:06;;;;;;;1.75;1.65;;;23.80;42.80;;;;;;5062935;28;20676;-59
2022/05/19 18:29:34;;;;;;;2.08;1.88;;;23.80;43.60;;;;;;5070986;28;20260;-59
2022/05/19 18:32:03;;;;;;;3.78;1.80;;;23.80;43.10;;;;;;5071759;28;20199;-59
2022/05/19 18:34:31;;;;;;;1.88;1.77;;;23.70;43.20;;;;;;5070733;28;20219;-60
2022/05/19 18:36:58;;;;;;;1.77;1.55;;;23.60;43.20;;;;;;5071390;28;20260;-59
2022/05/19 18:39:25;;;;;;;1.60;1.50;;;23.60;43.30;;;;;;5070157;28;20204;-60
2022/05/19 18:44:52;;;;;;;1.30;1.20;;;23.60;43.50;;;;;;5070131;28;20252;-58
2022/05/19 18:47:20;;;;;;;1.40;1.30;;;23.60;43.60;;;;;;5071383;28;20270;-60
2022/05/19 18:49:47;;;;;;;2.15;1.13;;;23.50;43.60;;;;;;5070317;28;20395;-60
2022/05/19 18:52:14;;;;;;;1.50;1.40;;;23.50;43.70;;;;;;5069355;28;20711;-60
2022/05/19 18:54:41;;;;;;;1.60;1.50;;;23.50;43.80;;;;;;5071062;28;20813;-60
2022/05/19 18:57:09;;;;;;;2.35;1.30;;;23.50;43.90;;;;;;5071085;28;20197;-59
2022/05/19 18:59:36;;;;;;;1.50;1.40;;;23.50;44.10;;;;;;5071452;28;20217;-59
2022/05/19 19:02:05;;;;;;;4.03;1.45;;;23.40;44.10;;;;;;5071359;28;20248;-59
2022/05/19 19:04:33;;;;;;;1.40;1.23;;;23.40;44.40;;;;;;5070606;28;20194;-59
2022/05/19 19:07:00;;;;;;;1.20;1.10;;;23.30;44.40;;;;;;5103484;28;20197;-60
2022/05/19 19:09:27;;;;;;;1.25;1.15;;;23.30;44.50;;;;;;5069712;28;20247;-60
2022/05/19 19:11:55;;;;;;;2.47;1.30;;;23.30;44.60;;;;;;5073753;28;20201;-58
2022/05/19 19:14:22;;;;;;;1.13;1.02;;;23.30;44.70;;;;;;5067765;28;20192;-59
2022/05/19 19:16:50;;;;;;;1.48;1.30;;;23.30;44.70;;;;;;5070686;28;20213;-59
2022/05/19 19:19:21;;;;;;;1.50;1.40;;;23.30;44.80;;;;;;5070504;28;20267;-60
2022/05/19 19:21:51;;;;;;;1.30;1.30;;;23.30;45.00;;;;;;5070866;28;20550;-60
2022/05/19 19:24:19;;;;;;;1.25;1.02;;;23.20;45.00;;;;;;5068504;28;20209;-60
2022/05/19 19:26:47;;;;;;;1.23;1.20;;;23.20;45.10;;;;;;5070321;28;20193;-59
2022/05/19 19:29:16;;;;;;;1.33;1.30;;;23.20;45.30;;;;;;5070009;28;20675;-60
2022/05/19 19:31:44;;;;;;;2.97;1.58;;;23.20;45.40;;;;;;5070494;28;20200;-59
2022/05/19 19:34:13;;;;;;;1.65;1.55;;;23.10;45.50;;;;;;5069843;28;20227;-60
2022/05/19 19:36:44;;;;;;;2.10;1.90;;;23.10;45.70;;;;;;5069845;28;20271;-59
2022/05/19 19:39:13;;;;;;;2.28;2.08;;;23.10;45.90;;;;;;5067490;28;20189;-60
2022/05/19 19:41:41;;;;;;;2.50;1.70;;;23.00;45.90;;;;;;5070342;28;20208;-60
2022/05/19 19:44:11;;;;;;;1.88;1.77;;;23.00;46.10;;;;;;5069643;28;20231;-59
2022/05/19 19:46:39;;;;;;;1.90;1.80;;;22.90;46.70;;;;;;5069710;28;20243;-60
2022/05/19 19:49:08;;;;;;;1.98;1.77;;;22.90;46.20;;;;;;5068841;28;20703;-58
2022/05/19 19:54:22;;;;;;;2.35;1.90;;;22.90;46.40;;;;;;5068609;28;20205;-60
2022/05/19 19:56:49;;;;;;;1.55;1.45;;;22.80;46.50;;;;;;5064162;28;20202;-59
2022/05/19 19:59:17;;;;;;;1.77;1.63;;;22.80;46.70;;;;;;5069196;28;20228;-60
2022/05/19 20:01:46;;;;;;;1.50;1.40;;;22.80;46.70;;;;;;5070052;28;20201;-59
2022/05/19 20:04:13;;;;;;;1.60;1.50;;;22.80;46.90;;;;;;5066599;28;20212;-60
2022/05/19 20:06:41;;;;;;;1.55;1.45;;;22.80;46.90;;;;;;5068869;28;20672;-60
2022/05/19 20:09:08;;;;;;;1.35;1.35;;;22.80;47.00;;;;;;5067275;28;20221;-59
2022/05/19 20:11:38;;;;;;;1.30;1.30;;;22.80;47.00;;;;;;5061739;28;20550;-59
2022/05/19 20:14:07;;;;;;;1.60;1.50;;;22.80;47.00;;;;;;5060738;28;20196;-59
2022/05/19 20:16:35;;;;;;;1.27;1.20;;;22.80;47.10;;;;;;5069823;28;20197;-60
2022/05/19 20:19:02;;;;;;;1.50;1.40;;;22.70;47.10;;;;;;5069140;28;20339;-59
2022/05/19 20:21:30;;;;;;;1.35;1.25;;;22.80;47.30;;;;;;5069222;28;20538;-58
2022/05/19 20:23:57;;;;;;;1.40;1.23;;;22.70;47.40;;;;;;5068132;28;20212;-58
2022/05/19 20:26:25;;;;;;;1.27;1.20;;;22.70;47.40;;;;;;5069424;28;20197;-59
2022/05/19 20:28:54;;;;;;;1.48;1.38;;;22.70;47.50;;;;;;5069136;28;20213;-60
2022/05/19 20:31:21;;;;;;;1.90;1.40;;;22.70;47.50;;;;;;5068731;28;20207;-59
2022/05/19 20:33:48;;;;;;;1.83;1.60;;;22.60;47.60;;;;;;5069461;28;20212;-59
2022/05/19 20:36:16;;;;;;;1.55;1.45;;;22.60;47.70;;;;;;5069122;28;20197;-59
2022/05/19 20:38:43;;;;;;;1.33;1.20;;;22.60;47.70;;;;;;5066941;28;20189;-59
2022/05/19 20:41:12;;;;;;;1.75;1.50;;;22.50;48.30;;;;;;5069185;28;20276;-59
2022/05/19 20:43:40;;;;;;;1.38;1.30;;;22.50;47.80;;;;;;5068709;28;20250;-59
2022/05/19 20:46:09;;;;;;;1.45;1.40;;;22.50;47.80;;;;;;5069298;28;20197;-61
2022/05/19 20:48:36;;;;;;;1.45;1.35;;;22.50;47.90;;;;;;5068548;28;20265;-60
2022/05/19 20:51:05;;;;;;;1.40;1.30;;;22.50;48.00;;;;;;5058586;28;20193;-59
2022/05/19 20:53:32;;;;;;;1.35;1.25;;;22.30;47.80;;;;;;5067610;28;20231;-60
2022/05/19 20:56:00;;;;;;;1.42;1.42;;;22.40;48.00;;;;;;5069472;28;20660;-59
2022/05/19 20:58:27;;;;;;;3.40;1.85;;;22.40;48.00;;;;;;5068707;28;20202;-59
2022/05/19 21:00:54;;;;;;;1.60;1.50;;;22.40;48.10;;;;;;5068872;28;20201;-59
2022/05/19 21:03:23;;;;;;;1.85;1.75;;;22.40;48.20;;;;;;5067187;28;20204;-59
2022/05/19 21:05:51;;;;;;;1.67;1.58;;;22.40;48.20;;;;;;5067672;28;20687;-59
2022/05/19 21:08:18;;;;;;;1.48;1.38;;;22.40;48.30;;;;;;5068862;28;20201;-60
2022/05/19 21:10:45;;;;;;;1.70;1.60;;;22.40;48.40;;;;;;5063489;28;20612;-59
2022/05/19 21:13:12;;;;;;;1.60;1.48;;;22.30;48.40;;;;;;5066805;28;20208;-59
2022/05/19 21:15:39;;;;;;;1.70;1.60;;;22.30;48.50;;;;;;5096772;28;20669;-59
2022/05/19 21:18:07;;;;;;;1.77;1.67;;;22.30;48.50;;;;;;5072826;28;20668;-58
2022/05/19 21:20:36;;;;;;;1.55;1.45;;;22.30;48.60;;;;;;5073410;28;20248;-59
2022/05/19 21:25:51;;;;;;;1.45;1.35;;;22.20;48.60;;;;;;5071770;28;20204;-59
2022/05/19 21:25:52;;;;;;;1.50;1.40;;;22.20;48.60;;;;;;5073330;28;20195;-60
2022/05/19 21:28:20;;;;;;;1.58;1.48;;;22.20;48.80;;;;;;5072691;28;20528;-59
2022/05/19 21:30:49;;;;;;;1.50;1.40;;;22.10;48.70;;;;;;5071924;28;20654;-59
2022/05/19 21:33:16;;;;;;;2.30;2.10;;;22.10;48.80;;;;;;5071449;28;20201;-59
2022/05/19 21:35:45;;;;;;;2.42;1.80;;;22.10;48.80;;;;;;5072640;28;20750;-60
2022/05/19 21:38:13;;;;;;;2.05;1.85;;;22.10;48.90;;;;;;5071194;28;20222;-60
2022/05/19 21:40:42;;;;;;;1.88;1.67;;;22.00;48.90;;;;;;5071300;28;20210;-59
2022/05/19 21:43:11;;;;;;;1.50;1.40;;;22.00;49.00;;;;;;5072710;28;20199;-59
2022/05/19 21:45:39;;;;;;;1.63;1.52;;;21.90;49.00;;;;;;5071632;28;20216;-60
2022/05/19 21:48:07;;;;;;;1.50;1.40;;;21.90;49.10;;;;;;5072199;28;20282;-60
2022/05/19 21:50:35;;;;;;;1.70;1.50;;;21.90;49.20;;;;;;5071968;28;20221;-59
2022/05/19 21:55:48;;;;;;;2.33;1.35;;;21.80;49.30;;;;;;5062406;28;20203;-59
2022/05/19 21:58:16;;;;;;;2.03;1.58;;;21.80;49.30;;;;;;5072039;28;20204;-59
2022/05/19 22:00:49;;;;;;;1.25;1.25;;;21.70;49.30;;;;;;5072568;28;20208;-59
2022/05/19 22:03:19;;;;;;;1.50;1.40;;;21.70;49.40;;;;;;5070437;28;20205;-59
2022/05/19 22:07:32;;;;;;;1.17;1.17;;;21.70;49.50;;;;;;5067539;28;20201;-59
2022/05/19 22:08:39;;;;;;;1.45;1.35;;;21.70;49.60;;;;;;5070085;28;20207;-59
2022/05/19 22:11:07;;;;;;;1.35;1.10;;;21.60;49.60;;;;;;5071806;28;20205;-60
2022/05/19 22:13:35;;;;;;;2.40;1.60;;;21.60;49.60;;;;;;5067175;28;20204;-59
2022/05/19 22:16:03;;;;;;;1.70;1.60;;;21.60;49.70;;;;;;5072360;28;20346;-59
2022/05/19 22:18:30;;;;;;;1.90;1.55;;;21.60;49.80;;;;;;5071123;28;20669;-58
2022/05/19 22:20:57;;;;;;;2.17;1.75;;;21.50;49.80;;;;;;5071068;28;20196;-59
2022/05/19 22:23:24;;;;;;;1.65;1.50;;;21.50;49.80;;;;;;5056971;28;20231;-59
2022/05/19 22:25:57;;;;;;;1.70;1.60;;;21.50;49.80;;;;;;5071740;28;20661;-59
2022/05/19 22:28:24;;;;;;;1.48;1.38;;;21.50;49.90;;;;;;5071742;28;20216;-59
2022/05/19 22:30:53;;;;;;;1.48;1.38;;;21.50;49.90;;;;;;5071672;28;20308;-58
2022/05/19 22:33:20;;;;;;;1.70;1.60;;;21.50;50.00;;;;;;5071133;28;20664;-59
2022/05/19 22:35:48;;;;;;;5.20;1.60;;;21.40;50.00;;;;;;5071324;28;20196;-58
2022/05/19 22:38:15;;;;;;;1.63;1.52;;;21.40;50.00;;;;;;5069894;28;20211;-59
2022/05/19 22:40:42;;;;;;;2.45;1.75;;;21.40;50.10;;;;;;5071249;28;20204;-59
2022/05/19 22:43:11;;;;;;;1.80;1.70;;;21.30;50.10;;;;;;5071240;28;20204;-59
2022/05/19 22:45:38;;;;;;;1.60;1.50;;;21.30;50.10;;;;;;5071933;28;20311;-59
2022/05/19 22:48:06;;;;;;;1.80;1.70;;;21.30;50.20;;;;;;5070039;28;20574;-59
2022/05/19 22:50:38;;;;;;;1.50;1.40;;;21.30;50.30;;;;;;5071613;28;20213;-59
2022/05/19 22:53:06;;;;;;;1.50;1.40;;;21.20;50.30;;;;;;5070097;28;20671;-59
2022/05/19 22:55:35;;;;;;;1.60;1.50;;;21.20;50.30;;;;;;5071793;28;20204;-59
2022/05/19 22:58:03;;;;;;;1.50;1.40;;;21.20;50.40;;;;;;5071445;28;20196;-59
2022/05/19 23:00:35;;;;;;;1.60;1.50;;;21.20;50.40;;;;;;5071058;28;20185;-59
2022/05/19 23:03:05;;;;;;;1.65;1.55;;;21.20;50.50;;;;;;5068934;28;20216;-59
2022/05/19 23:05:33;;;;;;;1.58;1.40;;;21.20;50.50;;;;;;5071336;28;20197;-60
2022/05/19 23:08:00;;;;;;;1.80;1.70;;;21.20;50.50;;;;;;5067627;28;20295;-59
2022/05/19 23:10:31;;;;;;;1.38;1.23;;;21.10;50.50;;;;;;5070243;28;20236;-59
2022/05/19 23:12:59;;;;;;;1.75;1.65;;;21.10;50.50;;;;;;5057345;28;20239;-59
2022/05/19 23:15:28;;;;;;;1.80;1.70;;;21.10;50.60;;;;;;5070993;28;20208;-59
2022/05/19 23:17:57;;;;;;;1.70;1.60;;;21.10;50.60;;;;;;5070036;28;20200;-59
2022/05/19 23:20:27;;;;;;;1.23;1.23;;;21.10;50.60;;;;;;5071210;28;20197;-60
2022/05/19 23:22:54;;;;;;;1.65;1.55;;;21.10;50.70;;;;;;5068946;28;20204;-58
2022/05/19 23:25:24;;;;;;;1.95;1.80;;;21.10;50.70;;;;;;5070695;28;20688;-59
2022/05/19 23:27:52;;;;;;;1.80;1.67;;;20.90;50.70;;;;;;5070246;28;20281;-59
2022/05/19 23:30:20;;;;;;;1.73;1.63;;;21.00;50.90;;;;;;5103056;28;20221;-59
2022/05/19 23:35:34;;;;;;;1.58;1.48;;;21.00;51.00;;;;;;5070758;28;20664;-59
2022/05/19 23:38:06;;;;;;;1.60;1.50;;;21.00;51.70;;;;;;5067212;28;20208;-59
2022/05/19 23:40:34;;;;;;;1.60;1.50;;;20.90;51.10;;;;;;5070124;28;20672;-59
2022/05/19 23:43:01;;;;;;;1.45;1.35;;;20.90;51.20;;;;;;5064025;28;20192;-59
2022/05/19 23:45:29;;;;;;;2.53;1.60;;;20.90;51.20;;;;;;5070420;28;20287;-59
2022/05/19 23:47:56;;;;;;;1.65;1.55;;;20.90;51.30;;;;;;5069924;28;20307;-59
2022/05/19 23:50:25;;;;;;;1.70;1.60;;;20.90;51.40;;;;;;5070099;28;20205;-59
2022/05/19 23:52:54;;;;;;;2.50;1.50;;;20.80;51.30;;;;;;5067811;28;20201;-58
2022/05/19 23:55:22;;;;;;;1.63;1.40;;;20.80;51.40;;;;;;5070157;28;20217;-59
2022/05/19 23:57:49;;;;;;;3.35;1.60;;;20.70;51.50;;;;;;5069228;28;20205;-59
